Terminal Aerodrome Forecast
Issued by NWS Burlington, VT

Home | Current Version | Previous Version | Text Only | Print | Product List | Glossary On
Versions: 1 2 3 4 5 6 7 8 9 10 11 12 13 14 15 16
170
FTUS41 KBTV 181341 AAB
TAFBTV
TAF AMD
KBTV 181341Z 1814/1912 17005KT P6SM VCSH SCT020 OVC050
      TEMPO 1814/1817 4SM -RASN BR OVC020
     FM181700 16006KT P6SM VCSH OVC025
     FM190500 19005KT P6SM OVC012=

USA.gov is the U.S. government's official web portal to all federal, state and local government web resources and services.